sensor_id;sensor_type;location;lat;lon;timestamp;P1;durP1;ratioP1;P2;durP2;ratioP2
25717;SDS011;13574;52.040;5.692;2023-03-30T00:01:28;10.63;;;4.95;;
25717;SDS011;13574;52.040;5.692;2023-03-30T00:03:54;8.25;;;4.65;;
25717;SDS011;13574;52.040;5.692;2023-03-30T00:06:20;8.93;;;4.90;;
25717;SDS011;13574;52.040;5.692;2023-03-30T00:08:50;7.00;;;4.22;;
25717;SDS011;13574;52.040;5.692;2023-03-30T00:11:21;11.02;;;4.95;;
25717;SDS011;13574;52.040;5.692;2023-03-30T00:13:48;9.70;;;5.07;;
25717;SDS011;13574;52.040;5.692;2023-03-30T00:16:17;13.25;;;5.18;;
25717;SDS011;13574;52.040;5.692;2023-03-30T00:18:44;9.93;;;4.70;;
25717;SDS011;13574;52.040;5.692;2023-03-30T00:21:09;7.78;;;4.95;;
25717;SDS011;13574;52.040;5.692;2023-03-30T00:23:36;8.23;;;4.50;;
25717;SDS011;13574;52.040;5.692;2023-03-30T00:26:03;10.20;;;4.65;;
25717;SDS011;13574;52.040;5.692;2023-03-30T00:28:29;11.40;;;4.95;;
25717;SDS011;13574;52.040;5.692;2023-03-30T00:30:55;7.97;;;4.72;;
25717;SDS011;13574;52.040;5.692;2023-03-30T00:33:21;8.25;;;4.32;;
25717;SDS011;13574;52.040;5.692;2023-03-30T00:35:51;8.30;;;4.53;;
25717;SDS011;13574;52.040;5.692;2023-03-30T00:38:17;8.18;;;4.25;;
25717;SDS011;13574;52.040;5.692;2023-03-30T00:40:49;9.35;;;4.20;;
25717;SDS011;13574;52.040;5.692;2023-03-30T00:43:16;8.75;;;4.40;;
25717;SDS011;13574;52.040;5.692;2023-03-30T00:45:41;8.93;;;4.35;;
25717;SDS011;13574;52.040;5.692;2023-03-30T00:50:48;6.85;;;4.20;;
25717;SDS011;13574;52.040;5.692;2023-03-30T00:55:44;7.72;;;3.90;;
25717;SDS011;13574;52.040;5.692;2023-03-30T00:58:11;8.45;;;4.00;;
25717;SDS011;13574;52.040;5.692;2023-03-30T01:00:39;8.15;;;3.97;;
25717;SDS011;13574;52.040;5.692;2023-03-30T01:03:13;6.57;;;4.00;;
25717;SDS011;13574;52.040;5.692;2023-03-30T01:05:46;7.65;;;3.90;;
25717;SDS011;13574;52.040;5.692;2023-03-30T01:08:13;9.98;;;3.92;;
25717;SDS011;13574;52.040;5.692;2023-03-30T01:10:41;5.63;;;3.65;;
25717;SDS011;13574;52.040;5.692;2023-03-30T01:13:11;9.30;;;4.20;;
25717;SDS011;13574;52.040;5.692;2023-03-30T01:15:38;7.05;;;3.97;;
25717;SDS011;13574;52.040;5.692;2023-03-30T01:20:54;7.78;;;4.05;;
25717;SDS011;13574;52.040;5.692;2023-03-30T01:24:05;6.38;;;3.80;;
25717;SDS011;13574;52.040;5.692;2023-03-30T01:26:57;6.47;;;3.85;;
25717;SDS011;13574;52.040;5.692;2023-03-30T01:37:35;8.90;;;3.58;;
25717;SDS011;13574;52.040;5.692;2023-03-30T01:40:43;6.57;;;3.67;;
25717;SDS011;13574;52.040;5.692;2023-03-30T01:46:07;13.80;;;3.75;;
25717;SDS011;13574;52.040;5.692;2023-03-30T01:48:50;7.95;;;3.85;;
25717;SDS011;13574;52.040;5.692;2023-03-30T01:51:28;6.55;;;3.63;;
25717;SDS011;13574;52.040;5.692;2023-03-30T01:56:43;7.68;;;3.40;;
25717;SDS011;13574;52.040;5.692;2023-03-30T01:59:25;5.38;;;3.95;;
25717;SDS011;13574;52.040;5.692;2023-03-30T02:02:00;9.05;;;3.53;;
25717;SDS011;13574;52.040;5.692;2023-03-30T02:04:32;7.95;;;3.80;;
25717;SDS011;13574;52.040;5.692;2023-03-30T02:07:07;6.93;;;3.92;;
25717;SDS011;13574;52.040;5.692;2023-03-30T02:09:38;6.00;;;3.03;;
25717;SDS011;13574;52.040;5.692;2023-03-30T02:12:06;8.38;;;3.40;;
25717;SDS011;13574;52.040;5.692;2023-03-30T02:14:34;9.57;;;3.22;;
25717;SDS011;13574;52.040;5.692;2023-03-30T02:17:04;7.47;;;3.45;;
25717;SDS011;13574;52.040;5.692;2023-03-30T02:19:35;7.18;;;3.47;;
25717;SDS011;13574;52.040;5.692;2023-03-30T02:22:02;6.50;;;3.17;;
25717;SDS011;13574;52.040;5.692;2023-03-30T02:24:28;8.50;;;3.42;;
25717;SDS011;13574;52.040;5.692;2023-03-30T02:26:56;5.72;;;3.20;;
25717;SDS011;13574;52.040;5.692;2023-03-30T02:29:25;7.38;;;3.25;;
25717;SDS011;13574;52.040;5.692;2023-03-30T02:31:53;6.22;;;3.08;;
25717;SDS011;13574;52.040;5.692;2023-03-30T02:37:03;6.70;;;2.80;;
25717;SDS011;13574;52.040;5.692;2023-03-30T02:42:54;6.72;;;2.60;;
25717;SDS011;13574;52.040;5.692;2023-03-30T02:48:28;8.20;;;3.28;;
25717;SDS011;13574;52.040;5.692;2023-03-30T02:57:04;7.28;;;3.47;;
25717;SDS011;13574;52.040;5.692;2023-03-30T03:02:12;7.72;;;3.42;;
25717;SDS011;13574;52.040;5.692;2023-03-30T03:04:45;7.55;;;3.50;;
25717;SDS011;13574;52.040;5.692;2023-03-30T03:07:14;7.78;;;2.95;;
25717;SDS011;13574;52.040;5.692;2023-03-30T03:09:40;8.73;;;3.30;;
25717;SDS011;13574;52.040;5.692;2023-03-30T03:12:06;6.82;;;2.90;;
25717;SDS011;13574;52.040;5.692;2023-03-30T03:14:32;4.10;;;2.55;;
25717;SDS011;13574;52.040;5.692;2023-03-30T03:16:58;4.68;;;2.65;;
25717;SDS011;13574;52.040;5.692;2023-03-30T03:19:23;5.13;;;2.75;;
25717;SDS011;13574;52.040;5.692;2023-03-30T03:21:49;4.75;;;2.50;;
25717;SDS011;13574;52.040;5.692;2023-03-30T03:24:15;6.43;;;2.70;;
25717;SDS011;13574;52.040;5.692;2023-03-30T03:26:44;5.10;;;2.05;;
25717;SDS011;13574;52.040;5.692;2023-03-30T03:29:10;6.00;;;2.25;;
25717;SDS011;13574;52.040;5.692;2023-03-30T03:31:36;5.55;;;2.03;;
25717;SDS011;13574;52.040;5.692;2023-03-30T03:34:02;8.23;;;2.20;;
25717;SDS011;13574;52.040;5.692;2023-03-30T03:36:28;6.38;;;1.88;;
25717;SDS011;13574;52.040;5.692;2023-03-30T03:38:54;6.40;;;2.15;;
25717;SDS011;13574;52.040;5.692;2023-03-30T03:41:20;5.22;;;2.25;;
25717;SDS011;13574;52.040;5.692;2023-03-30T03:43:46;4.85;;;2.17;;
25717;SDS011;13574;52.040;5.692;2023-03-30T03:46:11;5.38;;;1.80;;
25717;SDS011;13574;52.040;5.692;2023-03-30T03:48:38;5.63;;;1.77;;
25717;SDS011;13574;52.040;5.692;2023-03-30T03:51:04;4.03;;;2.05;;
25717;SDS011;13574;52.040;5.692;2023-03-30T03:53:30;6.35;;;2.30;;
25717;SDS011;13574;52.040;5.692;2023-03-30T03:55:56;6.22;;;1.65;;
25717;SDS011;13574;52.040;5.692;2023-03-30T03:58:22;5.35;;;1.60;;
25717;SDS011;13574;52.040;5.692;2023-03-30T04:00:49;5.90;;;1.58;;
25717;SDS011;13574;52.040;5.692;2023-03-30T04:03:14;9.00;;;1.80;;
25717;SDS011;13574;52.040;5.692;2023-03-30T04:05:40;6.95;;;1.95;;
25717;SDS011;13574;52.040;5.692;2023-03-30T04:08:07;3.95;;;1.30;;
25717;SDS011;13574;52.040;5.692;2023-03-30T04:10:35;6.13;;;1.50;;
25717;SDS011;13574;52.040;5.692;2023-03-30T04:13:05;4.88;;;1.60;;
25717;SDS011;13574;52.040;5.692;2023-03-30T04:15:30;5.15;;;1.52;;
25717;SDS011;13574;52.040;5.692;2023-03-30T04:17:56;6.43;;;1.73;;
25717;SDS011;13574;52.040;5.692;2023-03-30T04:20:23;5.00;;;1.80;;
25717;SDS011;13574;52.040;5.692;2023-03-30T04:22:50;4.20;;;1.77;;
25717;SDS011;13574;52.040;5.692;2023-03-30T04:25:17;5.63;;;1.65;;
25717;SDS011;13574;52.040;5.692;2023-03-30T04:27:45;6.03;;;1.73;;
25717;SDS011;13574;52.040;5.692;2023-03-30T04:30:15;5.07;;;1.50;;
25717;SDS011;13574;52.040;5.692;2023-03-30T04:32:42;4.15;;;1.55;;
25717;SDS011;13574;52.040;5.692;2023-03-30T04:35:08;6.10;;;1.63;;
25717;SDS011;13574;52.040;5.692;2023-03-30T04:37:35;3.97;;;1.52;;
25717;SDS011;13574;52.040;5.692;2023-03-30T04:40:02;5.38;;;1.80;;
25717;SDS011;13574;52.040;5.692;2023-03-30T04:42:33;3.28;;;1.67;;
25717;SDS011;13574;52.040;5.692;2023-03-30T04:45:08;4.32;;;2.08;;
25717;SDS011;13574;52.040;5.692;2023-03-30T04:47:34;4.82;;;1.63;;
25717;SDS011;13574;52.040;5.692;2023-03-30T04:50:00;5.85;;;1.90;;
25717;SDS011;13574;52.040;5.692;2023-03-30T04:52:26;5.35;;;1.90;;
25717;SDS011;13574;52.040;5.692;2023-03-30T04:54:52;6.03;;;2.33;;
25717;SDS011;13574;52.040;5.692;2023-03-30T04:57:18;5.18;;;2.05;;
25717;SDS011;13574;52.040;5.692;2023-03-30T04:59:44;4.35;;;1.92;;
25717;SDS011;13574;52.040;5.692;2023-03-30T05:02:10;3.78;;;2.05;;
25717;SDS011;13574;52.040;5.692;2023-03-30T05:04:37;7.60;;;2.15;;
25717;SDS011;13574;52.040;5.692;2023-03-30T05:07:03;6.05;;;2.25;;
25717;SDS011;13574;52.040;5.692;2023-03-30T05:09:30;6.15;;;2.83;;
25717;SDS011;13574;52.040;5.692;2023-03-30T05:11:56;7.10;;;2.45;;
25717;SDS011;13574;52.040;5.692;2023-03-30T05:14:22;6.22;;;2.63;;
25717;SDS011;13574;52.040;5.692;2023-03-30T05:16:48;8.43;;;2.72;;
25717;SDS011;13574;52.040;5.692;2023-03-30T05:19:16;6.18;;;3.10;;
25717;SDS011;13574;52.040;5.692;2023-03-30T05:21:42;7.15;;;3.13;;
25717;SDS011;13574;52.040;5.692;2023-03-30T05:24:10;8.25;;;3.63;;
25717;SDS011;13574;52.040;5.692;2023-03-30T05:26:40;10.48;;;3.53;;
25717;SDS011;13574;52.040;5.692;2023-03-30T05:29:05;8.90;;;3.55;;
25717;SDS011;13574;52.040;5.692;2023-03-30T05:31:31;7.93;;;3.63;;
25717;SDS011;13574;52.040;5.692;2023-03-30T05:33:57;7.10;;;3.90;;
25717;SDS011;13574;52.040;5.692;2023-03-30T05:36:22;8.15;;;4.05;;
25717;SDS011;13574;52.040;5.692;2023-03-30T05:38:48;7.28;;;3.58;;
25717;SDS011;13574;52.040;5.692;2023-03-30T05:41:17;9.27;;;4.13;;
25717;SDS011;13574;52.040;5.692;2023-03-30T05:43:43;6.63;;;3.25;;
25717;SDS011;13574;52.040;5.692;2023-03-30T05:46:08;7.88;;;3.20;;
25717;SDS011;13574;52.040;5.692;2023-03-30T05:48:35;10.10;;;3.88;;
25717;SDS011;13574;52.040;5.692;2023-03-30T05:51:01;9.57;;;3.72;;
25717;SDS011;13574;52.040;5.692;2023-03-30T05:53:26;7.90;;;3.20;;
25717;SDS011;13574;52.040;5.692;2023-03-30T05:55:52;7.47;;;3.42;;
25717;SDS011;13574;52.040;5.692;2023-03-30T05:58:18;9.60;;;3.70;;
25717;SDS011;13574;52.040;5.692;2023-03-30T06:00:43;9.55;;;3.97;;
25717;SDS011;13574;52.040;5.692;2023-03-30T06:03:12;7.95;;;3.50;;
25717;SDS011;13574;52.040;5.692;2023-03-30T06:05:38;7.10;;;3.25;;
25717;SDS011;13574;52.040;5.692;2023-03-30T06:08:06;11.50;;;3.53;;
25717;SDS011;13574;52.040;5.692;2023-03-30T06:10:32;11.05;;;3.70;;
25717;SDS011;13574;52.040;5.692;2023-03-30T06:12:59;7.85;;;3.53;;
25717;SDS011;13574;52.040;5.692;2023-03-30T06:15:25;11.23;;;3.30;;
25717;SDS011;13574;52.040;5.692;2023-03-30T06:17:51;8.27;;;3.88;;
25717;SDS011;13574;52.040;5.692;2023-03-30T06:20:17;9.38;;;3.85;;
25717;SDS011;13574;52.040;5.692;2023-03-30T06:22:45;13.80;;;4.10;;
25717;SDS011;13574;52.040;5.692;2023-03-30T06:25:12;13.10;;;4.38;;
25717;SDS011;13574;52.040;5.692;2023-03-30T06:27:38;8.48;;;3.97;;
25717;SDS011;13574;52.040;5.692;2023-03-30T06:30:04;10.98;;;4.13;;
25717;SDS011;13574;52.040;5.692;2023-03-30T06:32:33;9.18;;;4.20;;
25717;SDS011;13574;52.040;5.692;2023-03-30T06:34:59;10.70;;;4.28;;
25717;SDS011;13574;52.040;5.692;2023-03-30T06:37:24;13.55;;;4.13;;
25717;SDS011;13574;52.040;5.692;2023-03-30T06:39:50;10.63;;;3.78;;
25717;SDS011;13574;52.040;5.692;2023-03-30T06:42:16;16.58;;;4.45;;
25717;SDS011;13574;52.040;5.692;2023-03-30T06:44:42;12.18;;;3.88;;
25717;SDS011;13574;52.040;5.692;2023-03-30T06:47:07;11.27;;;3.58;;
25717;SDS011;13574;52.040;5.692;2023-03-30T06:49:33;15.15;;;3.95;;
25717;SDS011;13574;52.040;5.692;2023-03-30T06:51:59;11.48;;;3.50;;
25717;SDS011;13574;52.040;5.692;2023-03-30T06:54:25;9.57;;;3.35;;
25717;SDS011;13574;52.040;5.692;2023-03-30T06:56:51;12.85;;;3.53;;
25717;SDS011;13574;52.040;5.692;2023-03-30T06:59:17;10.35;;;3.60;;
25717;SDS011;13574;52.040;5.692;2023-03-30T07:01:43;11.20;;;3.58;;
25717;SDS011;13574;52.040;5.692;2023-03-30T07:04:09;10.45;;;3.78;;
25717;SDS011;13574;52.040;5.692;2023-03-30T07:06:35;12.05;;;3.80;;
25717;SDS011;13574;52.040;5.692;2023-03-30T07:09:01;13.88;;;3.65;;
25717;SDS011;13574;52.040;5.692;2023-03-30T07:11:28;9.88;;;3.45;;
25717;SDS011;13574;52.040;5.692;2023-03-30T07:13:53;11.40;;;3.85;;
25717;SDS011;13574;52.040;5.692;2023-03-30T07:16:22;14.27;;;3.50;;
25717;SDS011;13574;52.040;5.692;2023-03-30T07:18:51;10.25;;;3.25;;
25717;SDS011;13574;52.040;5.692;2023-03-30T07:21:18;12.35;;;3.65;;
25717;SDS011;13574;52.040;5.692;2023-03-30T07:23:44;12.27;;;3.38;;
25717;SDS011;13574;52.040;5.692;2023-03-30T07:26:10;11.93;;;3.50;;
25717;SDS011;13574;52.040;5.692;2023-03-30T07:28:36;14.32;;;3.50;;
25717;SDS011;13574;52.040;5.692;2023-03-30T07:31:05;11.43;;;3.40;;
25717;SDS011;13574;52.040;5.692;2023-03-30T07:33:32;13.27;;;3.22;;
25717;SDS011;13574;52.040;5.692;2023-03-30T07:35:58;14.48;;;3.35;;
25717;SDS011;13574;52.040;5.692;2023-03-30T07:38:24;11.25;;;3.20;;
25717;SDS011;13574;52.040;5.692;2023-03-30T07:40:51;8.63;;;3.33;;
25717;SDS011;13574;52.040;5.692;2023-03-30T07:43:16;14.00;;;4.45;;
25717;SDS011;13574;52.040;5.692;2023-03-30T07:45:42;9.93;;;3.45;;
25717;SDS011;13574;52.040;5.692;2023-03-30T07:48:08;14.27;;;3.50;;
25717;SDS011;13574;52.040;5.692;2023-03-30T07:50:33;15.32;;;3.50;;
25717;SDS011;13574;52.040;5.692;2023-03-30T07:52:59;14.70;;;3.70;;
25717;SDS011;13574;52.040;5.692;2023-03-30T07:55:27;12.20;;;3.33;;
25717;SDS011;13574;52.040;5.692;2023-03-30T07:57:54;13.50;;;3.33;;
25717;SDS011;13574;52.040;5.692;2023-03-30T08:00:21;14.57;;;3.45;;
25717;SDS011;13574;52.040;5.692;2023-03-30T08:02:47;13.23;;;3.50;;
25717;SDS011;13574;52.040;5.692;2023-03-30T08:05:13;9.85;;;2.88;;
25717;SDS011;13574;52.040;5.692;2023-03-30T08:07:39;16.70;;;3.40;;
25717;SDS011;13574;52.040;5.692;2023-03-30T08:10:07;16.25;;;3.30;;
25717;SDS011;13574;52.040;5.692;2023-03-30T08:12:33;18.08;;;3.70;;
25717;SDS011;13574;52.040;5.692;2023-03-30T08:14:59;22.45;;;3.58;;
25717;SDS011;13574;52.040;5.692;2023-03-30T08:17:25;11.57;;;3.08;;
25717;SDS011;13574;52.040;5.692;2023-03-30T08:19:51;15.68;;;3.03;;
25717;SDS011;13574;52.040;5.692;2023-03-30T08:22:17;15.40;;;3.72;;
25717;SDS011;13574;52.040;5.692;2023-03-30T08:24:43;14.98;;;3.60;;
25717;SDS011;13574;52.040;5.692;2023-03-30T08:27:08;17.92;;;3.20;;
25717;SDS011;13574;52.040;5.692;2023-03-30T08:29:34;15.35;;;3.05;;
25717;SDS011;13574;52.040;5.692;2023-03-30T08:32:00;13.98;;;3.25;;
25717;SDS011;13574;52.040;5.692;2023-03-30T08:34:25;12.40;;;2.90;;
25717;SDS011;13574;52.040;5.692;2023-03-30T08:36:51;21.65;;;3.53;;
25717;SDS011;13574;52.040;5.692;2023-03-30T08:39:17;15.55;;;3.10;;
25717;SDS011;13574;52.040;5.692;2023-03-30T08:41:55;15.57;;;3.65;;
25717;SDS011;13574;52.040;5.692;2023-03-30T08:44:34;18.67;;;3.30;;
25717;SDS011;13574;52.040;5.692;2023-03-30T08:47:04;18.73;;;3.67;;
25717;SDS011;13574;52.040;5.692;2023-03-30T08:49:38;11.68;;;3.40;;
25717;SDS011;13574;52.040;5.692;2023-03-30T08:52:08;16.02;;;3.40;;
25717;SDS011;13574;52.040;5.692;2023-03-30T08:54:41;16.50;;;3.00;;
25717;SDS011;13574;52.040;5.692;2023-03-30T08:57:20;15.65;;;3.80;;
25717;SDS011;13574;52.040;5.692;2023-03-30T09:02:42;14.35;;;3.30;;
25717;SDS011;13574;52.040;5.692;2023-03-30T09:05:20;12.23;;;3.42;;
25717;SDS011;13574;52.040;5.692;2023-03-30T09:10:41;11.82;;;2.75;;
25717;SDS011;13574;52.040;5.692;2023-03-30T09:13:14;12.73;;;3.22;;
25717;SDS011;13574;52.040;5.692;2023-03-30T09:15:45;15.05;;;3.47;;
25717;SDS011;13574;52.040;5.692;2023-03-30T09:18:32;13.90;;;3.47;;
25717;SDS011;13574;52.040;5.692;2023-03-30T09:21:19;10.52;;;2.70;;
25717;SDS011;13574;52.040;5.692;2023-03-30T09:29:49;20.38;;;3.55;;
25717;SDS011;13574;52.040;5.692;2023-03-30T09:32:30;18.90;;;3.90;;
25717;SDS011;13574;52.040;5.692;2023-03-30T09:35:03;12.82;;;3.42;;
25717;SDS011;13574;52.040;5.692;2023-03-30T09:37:37;15.25;;;4.03;;
25717;SDS011;13574;52.040;5.692;2023-03-30T09:40:12;12.70;;;3.97;;
25717;SDS011;13574;52.040;5.692;2023-03-30T09:43:06;15.20;;;3.92;;
25717;SDS011;13574;52.040;5.692;2023-03-30T09:45:39;17.75;;;4.15;;
25717;SDS011;13574;52.040;5.692;2023-03-30T09:48:07;14.18;;;3.45;;
25717;SDS011;13574;52.040;5.692;2023-03-30T09:50:37;19.02;;;4.00;;
25717;SDS011;13574;52.040;5.692;2023-03-30T09:53:26;17.55;;;4.15;;
25717;SDS011;13574;52.040;5.692;2023-03-30T09:55:57;20.00;;;3.75;;
25717;SDS011;13574;52.040;5.692;2023-03-30T09:58:26;16.98;;;3.42;;
25717;SDS011;13574;52.040;5.692;2023-03-30T10:01:03;17.90;;;3.95;;
25717;SDS011;13574;52.040;5.692;2023-03-30T10:03:39;19.58;;;4.38;;
25717;SDS011;13574;52.040;5.692;2023-03-30T10:06:10;17.00;;;3.40;;
25717;SDS011;13574;52.040;5.692;2023-03-30T10:08:48;21.70;;;3.65;;
25717;SDS011;13574;52.040;5.692;2023-03-30T10:11:58;18.17;;;3.60;;
25717;SDS011;13574;52.040;5.692;2023-03-30T10:14:11;18.92;;;3.28;;
25717;SDS011;13574;52.040;5.692;2023-03-30T10:16:55;21.60;;;3.47;;
25717;SDS011;13574;52.040;5.692;2023-03-30T10:19:22;17.92;;;3.42;;
25717;SDS011;13574;52.040;5.692;2023-03-30T10:21:53;18.73;;;3.33;;
25717;SDS011;13574;52.040;5.692;2023-03-30T10:24:22;18.48;;;3.35;;
25717;SDS011;13574;52.040;5.692;2023-03-30T10:27:07;23.45;;;3.22;;
25717;SDS011;13574;52.040;5.692;2023-03-30T10:29:37;20.05;;;3.28;;
25717;SDS011;13574;52.040;5.692;2023-03-30T10:32:16;19.63;;;3.13;;
25717;SDS011;13574;52.040;5.692;2023-03-30T10:34:58;23.15;;;3.53;;
25717;SDS011;13574;52.040;5.692;2023-03-30T10:37:29;22.00;;;5.22;;
25717;SDS011;13574;52.040;5.692;2023-03-30T10:40:10;16.80;;;3.70;;
25717;SDS011;13574;52.040;5.692;2023-03-30T10:42:52;15.00;;;2.97;;
25717;SDS011;13574;52.040;5.692;2023-03-30T10:45:21;17.52;;;3.38;;
25717;SDS011;13574;52.040;5.692;2023-03-30T10:48:00;16.20;;;3.63;;
25717;SDS011;13574;52.040;5.692;2023-03-30T10:50:57;22.73;;;4.20;;
25717;SDS011;13574;52.040;5.692;2023-03-30T11:04:05;18.77;;;3.22;;
25717;SDS011;13574;52.040;5.692;2023-03-30T11:06:39;19.83;;;3.75;;
25717;SDS011;13574;52.040;5.692;2023-03-30T11:09:08;17.23;;;3.17;;
25717;SDS011;13574;52.040;5.692;2023-03-30T11:11:39;18.55;;;3.63;;
25717;SDS011;13574;52.040;5.692;2023-03-30T11:14:26;18.13;;;3.33;;
25717;SDS011;13574;52.040;5.692;2023-03-30T11:17:21;19.15;;;3.05;;
25717;SDS011;13574;52.040;5.692;2023-03-30T11:19:52;22.00;;;3.30;;
25717;SDS011;13574;52.040;5.692;2023-03-30T11:24:49;16.27;;;3.30;;
25717;SDS011;13574;52.040;5.692;2023-03-30T11:29:52;16.02;;;2.83;;
25717;SDS011;13574;52.040;5.692;2023-03-30T11:32:36;14.48;;;2.95;;
25717;SDS011;13574;52.040;5.692;2023-03-30T11:38:07;14.07;;;2.67;;
25717;SDS011;13574;52.040;5.692;2023-03-30T11:43:29;18.92;;;3.35;;
25717;SDS011;13574;52.040;5.692;2023-03-30T11:51:12;15.45;;;3.13;;
25717;SDS011;13574;52.040;5.692;2023-03-30T12:11:30;19.17;;;2.58;;
25717;SDS011;13574;52.040;5.692;2023-03-30T12:14:05;13.65;;;2.60;;
25717;SDS011;13574;52.040;5.692;2023-03-30T12:17:04;15.30;;;2.55;;
25717;SDS011;13574;52.040;5.692;2023-03-30T12:19:42;17.23;;;3.00;;
25717;SDS011;13574;52.040;5.692;2023-03-30T12:22:15;13.70;;;2.83;;
25717;SDS011;13574;52.040;5.692;2023-03-30T12:27:51;18.67;;;2.50;;
25717;SDS011;13574;52.040;5.692;2023-03-30T12:30:40;15.18;;;3.13;;
25717;SDS011;13574;52.040;5.692;2023-03-30T12:33:18;24.80;;;2.97;;
25717;SDS011;13574;52.040;5.692;2023-03-30T12:38:33;20.58;;;2.85;;
25717;SDS011;13574;52.040;5.692;2023-03-30T12:41:10;18.08;;;2.72;;
25717;SDS011;13574;52.040;5.692;2023-03-30T12:43:46;18.35;;;3.70;;
25717;SDS011;13574;52.040;5.692;2023-03-30T12:46:28;17.48;;;3.08;;
25717;SDS011;13574;52.040;5.692;2023-03-30T13:06:04;17.17;;;2.70;;
25717;SDS011;13574;52.040;5.692;2023-03-30T13:08:39;21.00;;;3.45;;
25717;SDS011;13574;52.040;5.692;2023-03-30T13:13:50;18.55;;;3.20;;
25717;SDS011;13574;52.040;5.692;2023-03-30T13:19:20;14.85;;;2.63;;
25717;SDS011;13574;52.040;5.692;2023-03-30T13:29:53;24.00;;;3.83;;
25717;SDS011;13574;52.040;5.692;2023-03-30T13:35:24;21.63;;;3.15;;
25717;SDS011;13574;52.040;5.692;2023-03-30T13:47:08;19.63;;;3.35;;
25717;SDS011;13574;52.040;5.692;2023-03-30T13:52:17;16.20;;;3.45;;
25717;SDS011;13574;52.040;5.692;2023-03-30T13:54:52;19.80;;;2.78;;
25717;SDS011;13574;52.040;5.692;2023-03-30T13:57:22;22.77;;;4.13;;
25717;SDS011;13574;52.040;5.692;2023-03-30T14:02:43;25.10;;;4.05;;
25717;SDS011;13574;52.040;5.692;2023-03-30T14:05:27;15.25;;;2.88;;
25717;SDS011;13574;52.040;5.692;2023-03-30T14:07:56;15.82;;;2.65;;
25717;SDS011;13574;52.040;5.692;2023-03-30T14:10:23;16.77;;;2.83;;
25717;SDS011;13574;52.040;5.692;2023-03-30T14:12:51;19.60;;;3.03;;
25717;SDS011;13574;52.040;5.692;2023-03-30T14:15:25;17.30;;;2.85;;
25717;SDS011;13574;52.040;5.692;2023-03-30T14:17:57;12.63;;;2.13;;
25717;SDS011;13574;52.040;5.692;2023-03-30T14:22:59;15.55;;;2.70;;
25717;SDS011;13574;52.040;5.692;2023-03-30T14:25:37;13.63;;;2.88;;
25717;SDS011;13574;52.040;5.692;2023-03-30T14:28:11;13.85;;;2.80;;
25717;SDS011;13574;52.040;5.692;2023-03-30T14:30:51;19.17;;;2.35;;
25717;SDS011;13574;52.040;5.692;2023-03-30T14:35:44;17.77;;;2.50;;
25717;SDS011;13574;52.040;5.692;2023-03-30T14:38:15;14.90;;;2.38;;
25717;SDS011;13574;52.040;5.692;2023-03-30T14:43:14;15.02;;;2.20;;
25717;SDS011;13574;52.040;5.692;2023-03-30T14:48:16;13.57;;;2.47;;
25717;SDS011;13574;52.040;5.692;2023-03-30T14:50:53;18.75;;;2.40;;
25717;SDS011;13574;52.040;5.692;2023-03-30T14:53:21;16.33;;;3.00;;
25717;SDS011;13574;52.040;5.692;2023-03-30T14:55:50;20.15;;;2.70;;
25717;SDS011;13574;52.040;5.692;2023-03-30T14:58:21;17.80;;;2.53;;
25717;SDS011;13574;52.040;5.692;2023-03-30T15:00:49;18.15;;;3.22;;
25717;SDS011;13574;52.040;5.692;2023-03-30T15:03:22;13.48;;;2.50;;
25717;SDS011;13574;52.040;5.692;2023-03-30T15:05:54;15.60;;;3.05;;
25717;SDS011;13574;52.040;5.692;2023-03-30T15:08:26;11.25;;;2.40;;
25717;SDS011;13574;52.040;5.692;2023-03-30T15:10:56;17.08;;;2.53;;
25717;SDS011;13574;52.040;5.692;2023-03-30T15:13:35;10.07;;;2.25;;
25717;SDS011;13574;52.040;5.692;2023-03-30T15:16:06;11.07;;;2.35;;
25717;SDS011;13574;52.040;5.692;2023-03-30T15:18:36;11.98;;;2.33;;
25717;SDS011;13574;52.040;5.692;2023-03-30T15:21:02;10.98;;;1.95;;
25717;SDS011;13574;52.040;5.692;2023-03-30T15:23:35;15.18;;;2.28;;
25717;SDS011;13574;52.040;5.692;2023-03-30T15:26:05;15.90;;;2.20;;
25717;SDS011;13574;52.040;5.692;2023-03-30T15:28:32;14.48;;;2.58;;
25717;SDS011;13574;52.040;5.692;2023-03-30T15:31:08;12.50;;;2.08;;
25717;SDS011;13574;52.040;5.692;2023-03-30T15:34:12;14.60;;;2.53;;
25717;SDS011;13574;52.040;5.692;2023-03-30T15:36:37;14.20;;;2.15;;
25717;SDS011;13574;52.040;5.692;2023-03-30T15:39:16;16.17;;;3.03;;
25717;SDS011;13574;52.040;5.692;2023-03-30T15:41:46;15.05;;;2.25;;
25717;SDS011;13574;52.040;5.692;2023-03-30T15:44:22;13.55;;;2.17;;
25717;SDS011;13574;52.040;5.692;2023-03-30T15:46:48;14.30;;;2.15;;
25717;SDS011;13574;52.040;5.692;2023-03-30T15:49:19;15.43;;;2.60;;
25717;SDS011;13574;52.040;5.692;2023-03-30T15:51:52;15.07;;;2.47;;
25717;SDS011;13574;52.040;5.692;2023-03-30T15:57:29;15.18;;;2.70;;
25717;SDS011;13574;52.040;5.692;2023-03-30T15:59:59;15.90;;;2.80;;
25717;SDS011;13574;52.040;5.692;2023-03-30T16:04:56;15.45;;;2.45;;
25717;SDS011;13574;52.040;5.692;2023-03-30T16:07:25;13.35;;;2.30;;
25717;SDS011;13574;52.040;5.692;2023-03-30T16:09:53;11.15;;;2.97;;
25717;SDS011;13574;52.040;5.692;2023-03-30T16:12:48;11.35;;;2.63;;
25717;SDS011;13574;52.040;5.692;2023-03-30T16:15:15;13.02;;;2.70;;
25717;SDS011;13574;52.040;5.692;2023-03-30T16:20:37;11.20;;;2.60;;
25717;SDS011;13574;52.040;5.692;2023-03-30T16:23:04;9.63;;;2.35;;
25717;SDS011;13574;52.040;5.692;2023-03-30T16:25:40;15.43;;;2.72;;
25717;SDS011;13574;52.040;5.692;2023-03-30T16:28:11;12.23;;;3.13;;
25717;SDS011;13574;52.040;5.692;2023-03-30T16:30:54;12.23;;;2.53;;
25717;SDS011;13574;52.040;5.692;2023-03-30T16:33:24;10.70;;;2.38;;
25717;SDS011;13574;52.040;5.692;2023-03-30T16:35:49;10.95;;;2.60;;
25717;SDS011;13574;52.040;5.692;2023-03-30T16:38:15;12.55;;;2.72;;
25717;SDS011;13574;52.040;5.692;2023-03-30T16:40:43;11.45;;;2.20;;
25717;SDS011;13574;52.040;5.692;2023-03-30T16:43:10;15.10;;;2.80;;
25717;SDS011;13574;52.040;5.692;2023-03-30T16:45:36;10.00;;;2.10;;
25717;SDS011;13574;52.040;5.692;2023-03-30T16:48:02;14.10;;;2.42;;
25717;SDS011;13574;52.040;5.692;2023-03-30T16:50:42;12.23;;;2.20;;
25717;SDS011;13574;52.040;5.692;2023-03-30T16:53:10;13.65;;;2.17;;
25717;SDS011;13574;52.040;5.692;2023-03-30T16:55:41;9.30;;;2.25;;
25717;SDS011;13574;52.040;5.692;2023-03-30T16:58:08;14.07;;;2.50;;
25717;SDS011;13574;52.040;5.692;2023-03-30T17:00:46;11.80;;;2.75;;
25717;SDS011;13574;52.040;5.692;2023-03-30T17:03:13;14.48;;;2.55;;
25717;SDS011;13574;52.040;5.692;2023-03-30T17:05:40;12.88;;;2.78;;
25717;SDS011;13574;52.040;5.692;2023-03-30T17:08:19;14.88;;;2.55;;
25717;SDS011;13574;52.040;5.692;2023-03-30T17:10:48;13.27;;;2.33;;
25717;SDS011;13574;52.040;5.692;2023-03-30T17:15:41;16.10;;;2.55;;
25717;SDS011;13574;52.040;5.692;2023-03-30T17:18:18;15.50;;;2.83;;
25717;SDS011;13574;52.040;5.692;2023-03-30T17:20:46;15.55;;;2.72;;
25717;SDS011;13574;52.040;5.692;2023-03-30T17:23:14;12.57;;;3.25;;
25717;SDS011;13574;52.040;5.692;2023-03-30T17:25:43;18.10;;;3.45;;
25717;SDS011;13574;52.040;5.692;2023-03-30T17:28:09;12.93;;;2.92;;
25717;SDS011;13574;52.040;5.692;2023-03-30T17:30:54;13.43;;;2.88;;
25717;SDS011;13574;52.040;5.692;2023-03-30T17:33:22;21.02;;;3.30;;
25717;SDS011;13574;52.040;5.692;2023-03-30T17:35:50;14.48;;;3.30;;
25717;SDS011;13574;52.040;5.692;2023-03-30T17:38:18;11.37;;;3.10;;
25717;SDS011;13574;52.040;5.692;2023-03-30T17:40:45;10.32;;;3.00;;
25717;SDS011;13574;52.040;5.692;2023-03-30T17:43:12;15.13;;;3.40;;
25717;SDS011;13574;52.040;5.692;2023-03-30T17:45:39;13.48;;;3.40;;
25717;SDS011;13574;52.040;5.692;2023-03-30T17:48:08;13.68;;;3.35;;
25717;SDS011;13574;52.040;5.692;2023-03-30T17:50:37;16.67;;;3.85;;